createdAt,value
2023-04-24T11:16:48.080Z,99723.94
2023-04-24T11:19:16.613Z,99734.64
2023-04-24T11:21:43.928Z,99729.77
2023-04-24T11:24:27.005Z,99734.40
2023-04-24T11:26:58.804Z,99729.89
2023-04-24T11:29:46.212Z,99728.70
2023-04-24T11:32:19.983Z,99737.38
2023-04-24T11:34:48.994Z,99742.46
2023-04-24T11:37:16.516Z,99759.44
2023-04-24T11:39:43.895Z,99770.16
2023-04-24T11:42:11.130Z,99775.52
2023-04-24T11:44:38.653Z,99772.69
2023-04-24T11:47:08.313Z,99772.16
2023-04-24T11:49:38.143Z,99778.40
2023-04-24T11:52:06.090Z,99785.79
2023-04-24T11:54:33.460Z,99792.23
2023-04-24T11:57:01.171Z,99785.47
2023-04-24T11:59:28.388Z,99786.23
2023-04-24T12:01:55.640Z,99786.48
2023-04-24T12:04:23.139Z,99782.48
2023-04-24T12:07:11.863Z,99773.96
2023-04-24T12:09:51.436Z,99773.23
2023-04-24T12:12:20.056Z,99775.44
2023-04-24T12:14:51.550Z,99782.67
2023-04-24T12:17:18.896Z,99790.12
2023-04-24T12:19:48.120Z,99792.25
2023-04-24T12:22:15.416Z,99787.37
2023-04-24T12:24:58.967Z,99784.44
2023-04-24T12:27:26.751Z,99784.31
2023-04-24T12:29:55.449Z,99777.48
2023-04-24T12:32:22.774Z,99776.05
2023-04-24T12:34:52.367Z,99779.14
2023-04-24T12:37:19.729Z,99778.09
2023-04-24T12:40:09.696Z,99779.73
2023-04-24T12:42:43.011Z,99776.90
2023-04-24T12:45:10.827Z,99771.48
2023-04-24T12:47:38.066Z,99776.46
2023-04-24T12:50:06.988Z,99773.17
2023-04-24T12:52:34.270Z,99767.11
2023-04-24T12:55:01.829Z,99770.66
2023-04-24T12:57:30.934Z,99768.10
2023-04-24T12:59:59.912Z,99762.02
2023-04-24T13:02:29.029Z,99747.30
2023-04-24T13:04:56.630Z,99732.31
2023-04-24T13:07:24.849Z,99726.05
2023-04-24T13:09:52.684Z,99718.10
2023-04-24T13:12:20.726Z,99715.29
2023-04-24T13:14:48.000Z,99713.39
2023-04-24T13:17:15.643Z,99729.51
2023-04-24T13:19:44.291Z,99743.05
2023-04-24T13:22:12.322Z,99741.64
2023-04-24T13:24:41.089Z,99731.67
2023-04-24T13:27:08.710Z,99726.36
2023-04-24T13:29:36.063Z,99725.41
2023-04-24T13:32:03.353Z,99725.16
2023-04-24T13:34:30.770Z,99718.52
2023-04-24T13:36:59.526Z,99712.40
2023-04-24T13:39:27.253Z,99704.30
2023-04-24T13:41:54.896Z,99699.14
2023-04-24T13:44:22.546Z,99690.64
2023-04-24T13:46:52.950Z,99699.66
2023-04-24T13:49:20.226Z,99695.94
2023-04-24T13:51:47.487Z,99691.13
2023-04-24T13:54:14.741Z,99686.90
2023-04-24T13:56:42.092Z,99692.80
2023-04-24T13:59:10.024Z,99693.86
2023-04-24T14:01:37.225Z,99699.51
2023-04-24T14:04:04.649Z,99707.31
2023-04-24T14:06:32.588Z,99706.54
2023-04-24T14:08:59.909Z,99707.83
2023-04-24T14:11:27.348Z,99705.23
2023-04-24T14:13:55.768Z,99694.06
2023-04-24T14:16:23.183Z,99679.08
2023-04-24T14:18:50.995Z,99667.85
2023-04-24T14:21:18.309Z,99657.86
2023-04-24T14:23:45.824Z,99639.89
2023-04-24T14:26:13.430Z,99618.06
2023-04-24T14:28:40.919Z,99604.44
2023-04-24T14:31:10.050Z,99593.50
2023-04-24T14:33:37.336Z,99581.23
2023-04-24T14:36:06.829Z,99579.00
2023-04-24T14:38:34.088Z,99565.27
2023-04-24T14:41:07.401Z,99559.27
2023-04-24T14:43:37.392Z,99551.22
2023-04-24T14:46:05.061Z,99550.73
2023-04-24T14:48:32.314Z,99552.50
2023-04-24T14:50:59.797Z,99536.45
2023-04-24T14:53:27.027Z,99512.08
2023-04-24T14:55:55.006Z,99489.55
2023-04-24T14:58:22.452Z,99475.36
2023-04-24T15:00:53.178Z,99441.34
2023-04-24T15:03:20.712Z,99424.88
2023-04-24T15:05:48.595Z,99414.44
2023-04-24T15:08:16.170Z,99403.92
2023-04-24T15:10:44.542Z,99397.73
2023-04-24T15:13:11.798Z,99394.83
2023-04-24T15:15:39.160Z,99383.41
2023-04-24T15:18:06.875Z,99385.58
2023-04-24T15:20:36.627Z,99421.59
2023-04-24T15:23:05.421Z,99434.16
2023-04-24T15:25:32.668Z,99454.80
2023-04-24T15:28:00.442Z,99485.16
2023-04-24T15:30:28.605Z,99501.75
2023-04-24T15:32:55.994Z,99520.18
2023-04-24T15:35:23.515Z,99544.23
2023-04-24T15:37:51.203Z,99553.89
2023-04-24T15:40:18.737Z,99570.71
2023-04-24T15:42:46.393Z,99588.25
2023-04-24T15:45:13.657Z,99596.67
2023-04-24T15:47:41.162Z,99604.77
2023-04-24T15:50:14.358Z,99611.33
2023-04-24T15:52:42.159Z,99614.73
2023-04-24T15:55:10.034Z,99607.63
2023-04-24T15:57:37.284Z,99595.05
2023-04-24T16:00:08.405Z,99580.30
2023-04-24T16:02:41.444Z,99564.18
2023-04-24T16:05:09.277Z,99556.42
2023-04-24T16:07:38.391Z,99544.92
2023-04-24T16:10:06.687Z,99537.48
2023-04-24T16:12:34.107Z,99534.45
2023-04-24T16:15:01.572Z,99522.82
2023-04-24T16:17:28.938Z,99508.28
2023-04-24T16:19:56.206Z,99494.39
2023-04-24T16:22:23.421Z,99469.40
2023-04-24T16:24:50.676Z,99450.58
2023-04-24T16:27:17.923Z,99425.55
2023-04-24T16:29:45.183Z,99395.87
2023-04-24T16:32:12.435Z,99363.64
2023-04-24T16:34:39.988Z,99349.21
2023-04-24T16:37:07.471Z,99342.06
2023-04-24T16:39:35.269Z,99326.23
2023-04-24T16:42:02.867Z,99297.23
2023-04-24T16:44:30.227Z,99280.55
2023-04-24T16:46:57.861Z,99263.66
2023-04-24T16:49:25.142Z,99236.98
2023-04-24T16:51:52.399Z,99212.21
2023-04-24T16:54:19.650Z,99191.23
2023-04-24T16:56:46.895Z,99181.52
2023-04-24T16:59:14.152Z,99154.26
2023-04-24T17:01:41.398Z,99118.18
2023-04-24T17:04:09.127Z,99097.52
2023-04-24T17:06:36.618Z,99062.56
2023-04-24T17:09:04.183Z,99034.72
2023-04-24T17:11:31.529Z,99012.65
2023-04-24T17:14:01.673Z,99011.27
2023-04-24T17:16:29.365Z,98983.75
2023-04-24T17:18:56.672Z,98964.80
2023-04-24T17:21:24.020Z,98960.64
2023-04-24T17:23:51.383Z,98966.94
2023-04-24T17:26:18.641Z,98982.83
2023-04-24T17:28:46.384Z,99003.67
2023-04-24T17:31:14.160Z,99042.42
2023-04-24T17:33:41.515Z,99096.90
2023-04-24T17:36:09.180Z,99158.19
2023-04-24T17:38:36.629Z,99245.87
2023-04-24T17:41:03.881Z,99250.45
2023-04-24T17:43:31.236Z,99242.41
2023-04-24T17:45:59.794Z,99233.71
2023-04-24T17:48:27.382Z,99224.16
2023-04-24T17:50:54.947Z,99223.17
2023-04-24T17:53:23.150Z,99220.23
2023-04-24T17:55:50.565Z,99232.89
2023-04-24T17:58:19.345Z,99234.36
2023-04-24T18:00:47.232Z,99237.38
2023-04-24T18:03:14.726Z,99243.98
2023-04-24T18:05:42.246Z,99253.00
2023-04-24T18:08:09.501Z,99268.68
2023-04-24T18:10:36.958Z,99290.77
2023-04-24T18:13:04.824Z,99311.88
2023-04-24T18:15:32.442Z,99338.73
2023-04-24T18:17:59.918Z,99358.85
2023-04-24T18:20:27.489Z,99385.68
2023-04-24T18:22:54.859Z,99411.02
2023-04-24T18:25:27.151Z,99438.98
2023-04-24T18:27:55.595Z,99466.63
2023-04-24T18:30:24.262Z,99484.30
2023-04-24T18:32:53.366Z,99501.95
2023-04-24T18:35:21.565Z,99513.02
2023-04-24T18:37:49.347Z,99519.52
2023-04-24T18:40:16.892Z,99528.83
2023-04-24T18:42:44.544Z,99537.90
2023-04-24T18:45:14.599Z,99554.23
2023-04-24T18:47:43.467Z,99585.64
2023-04-24T18:50:11.451Z,99620.33
2023-04-24T18:52:38.684Z,99646.43
2023-04-24T18:55:07.267Z,99670.37
2023-04-24T18:57:34.707Z,99696.05
2023-04-24T19:00:02.249Z,99711.10
2023-04-24T19:02:29.689Z,99718.16
2023-04-24T19:04:57.176Z,99724.37
2023-04-24T19:07:25.349Z,99730.98
2023-04-24T19:09:52.607Z,99737.76
2023-04-24T19:12:21.610Z,99739.55
2023-04-24T19:14:49.969Z,99749.84
2023-04-24T19:17:25.828Z,99761.95
2023-04-24T19:19:53.387Z,99766.44
2023-04-24T19:22:23.507Z,99775.99
2023-04-24T19:24:50.755Z,99789.86
2023-04-24T19:27:18.008Z,99814.27
2023-04-24T19:29:45.264Z,99835.90
2023-04-24T19:32:12.532Z,99863.11
2023-04-24T19:34:40.704Z,99888.46
2023-04-24T19:37:08.593Z,99902.98
2023-04-24T19:39:36.022Z,99915.61
2023-04-24T19:42:07.215Z,99924.02
2023-04-24T19:44:35.009Z,99932.98
2023-04-24T19:47:02.388Z,99932.38
2023-04-24T19:49:29.641Z,99923.86
2023-04-24T19:51:56.982Z,99925.73
2023-04-24T19:54:24.858Z,99923.13
2023-04-24T19:56:52.105Z,99917.25
2023-04-24T19:59:19.291Z,99917.23
2023-04-24T20:01:47.283Z,99919.89
2023-04-24T20:04:14.719Z,99921.61
2023-04-24T20:06:42.242Z,99920.23
2023-04-24T20:09:10.311Z,99922.34
2023-04-24T20:11:37.570Z,99919.95
2023-04-24T20:14:04.916Z,99911.90
2023-04-24T20:16:32.512Z,99906.36
2023-04-24T20:18:59.868Z,99898.41
2023-04-24T20:21:27.184Z,99893.44
2023-04-24T20:23:54.433Z,99888.28
2023-04-24T20:26:21.995Z,99890.55
2023-04-24T20:28:49.587Z,99888.18
2023-04-24T20:31:17.456Z,99883.41
2023-04-24T20:33:45.809Z,99888.51
2023-04-24T20:36:13.358Z,99887.41
2023-04-24T20:38:40.613Z,99886.73
2023-04-24T20:41:09.195Z,99889.27
2023-04-24T20:43:36.765Z,99885.84
2023-04-24T20:46:04.006Z,99884.61
2023-04-24T20:48:31.766Z,99882.92
2023-04-24T20:51:02.194Z,99873.73
2023-04-24T20:53:29.549Z,99870.09
2023-04-24T20:55:56.808Z,99868.63
2023-04-24T20:58:24.730Z,99869.35
2023-04-24T21:00:52.518Z,99865.49
2023-04-24T21:03:20.176Z,99867.23
2023-04-24T21:05:53.792Z,99873.95
2023-04-24T21:08:21.045Z,99873.47
2023-04-24T21:10:48.300Z,99882.31
2023-04-24T21:13:15.549Z,99886.21
2023-04-24T21:15:42.801Z,99899.36
2023-04-24T21:18:10.064Z,99919.65
2023-04-24T21:20:37.304Z,99929.95
2023-04-24T21:23:04.560Z,99940.06
2023-04-24T21:25:32.018Z,99938.69
2023-04-24T21:27:59.879Z,99942.28
2023-04-24T21:30:27.333Z,99944.13
2023-04-24T21:32:54.662Z,99941.73
2023-04-24T21:35:22.252Z,99936.74
2023-04-24T21:37:49.503Z,99933.33
2023-04-24T21:40:16.854Z,99930.94
2023-04-24T21:42:44.218Z,99920.48
2023-04-24T21:45:12.113Z,99898.02
2023-04-24T21:47:39.461Z,99898.06
2023-04-24T21:50:07.728Z,99898.27
2023-04-24T21:52:35.060Z,99900.70
2023-04-24T21:55:02.434Z,99899.63
2023-04-24T21:57:29.894Z,99904.36
2023-04-24T21:59:57.543Z,99908.65
2023-04-24T22:02:24.880Z,99912.53
2023-04-24T22:04:53.315Z,99910.60
2023-04-24T22:07:21.134Z,99912.66
2023-04-24T22:09:48.388Z,99911.79
2023-04-24T22:12:15.642Z,99904.59
2023-04-24T22:14:43.111Z,99900.76
2023-04-24T22:17:10.759Z,99892.60
2023-04-24T22:19:38.125Z,99882.55
2023-04-24T22:22:05.574Z,99876.35
2023-04-24T22:24:32.926Z,99869.06
2023-04-24T22:27:00.176Z,99869.36
2023-04-24T22:29:27.438Z,99861.05
2023-04-24T22:31:56.989Z,99856.09
2023-04-24T22:34:24.286Z,99848.72
2023-04-24T22:36:51.547Z,99847.16
2023-04-24T22:39:19.299Z,99846.63
2023-04-24T22:41:46.557Z,99847.91
2023-04-24T22:44:13.802Z,99841.82
2023-04-24T22:46:41.058Z,99836.71
2023-04-24T22:49:08.352Z,99836.41
2023-04-24T22:51:35.787Z,99836.52
2023-04-24T22:54:06.496Z,99838.84
2023-04-24T22:56:34.415Z,99837.36
2023-04-24T22:59:01.719Z,99838.48
2023-04-24T23:01:29.293Z,99838.64
2023-04-24T23:03:56.637Z,99840.80
2023-04-24T23:06:23.891Z,99841.77
2023-04-24T23:08:51.082Z,99842.22
2023-04-24T23:11:18.593Z,99845.11
2023-04-24T23:13:45.982Z,99845.25
2023-04-24T23:16:13.389Z,99851.55
2023-04-24T23:18:40.873Z,99851.63
2023-04-24T23:21:08.118Z,99849.77
2023-04-24T23:23:35.371Z,99858.21
2023-04-24T23:26:02.625Z,99862.98
2023-04-24T23:28:29.973Z,99863.50
2023-04-24T23:30:57.449Z,99871.39
2023-04-24T23:33:24.784Z,99877.06
2023-04-24T23:35:52.958Z,99883.10
2023-04-24T23:38:20.320Z,99895.58
2023-04-24T23:40:47.565Z,99891.70
2023-04-24T23:43:14.818Z,99891.23
2023-04-24T23:45:42.106Z,99894.16
2023-04-24T23:48:09.429Z,99889.44
2023-04-24T23:50:36.676Z,99891.41
2023-04-24T23:53:03.928Z,99894.84
2023-04-24T23:55:31.186Z,99900.65
2023-04-24T23:57:58.433Z,99910.27
